| time (UTC) | temp F | wind direction | speed MPH | gust MPH | rain 1hr in | rain 24hr in | rain mn in | humidity % | barometer mb |
| 20260509185624 | 43 | 355 | 3.0 | 3.0 | 0.00 | 0.07 | 0.07 | 93 | 992.9 |
| 20260509185120 | 42 | 139 | 0.0 | 6.0 | 0.00 | 0.07 | 0.07 | 92 | 992.9 |
| 20260509184618 | 42 | 82 | 1.0 | 4.0 | 0.00 | 0.07 | 0.07 | 93 | 992.7 |
| 20260509184114 | 42 | 96 | 1.0 | 4.0 | 0.00 | 0.07 | 0.07 | 94 | 992.8 |
| 20260509183610 | 41 | 130 | 3.0 | 4.0 | 0.00 | 0.07 | 0.07 | 94 | 992.6 |
| 20260509183106 | 42 | 109 | 1.0 | 5.0 | 0.00 | 0.07 | 0.07 | 94 | 992.8 |
| 20260509182602 | 42 | 90 | 1.0 | 4.0 | 0.02 | 0.07 | 0.07 | 94 | 992.7 |
| 20260509182059 | 41 | 180 | 1.0 | 3.0 | 0.02 | 0.07 | 0.07 | 94 | 992.6 |
| 20260509181558 | 41 | 254 | 2.0 | 6.0 | 0.02 | 0.06 | 0.06 | 94 | 993.0 |
| 20260509181054 | 41 | 120 | 0.0 | 4.0 | 0.02 | 0.06 | 0.06 | 93 | 992.8 |
| 20260509180550 | 41 | 70 | 3.0 | 5.0 | 0.00 | 0.06 | 0.06 | 94 | 992.8 |
| 20260509180048 | 41 | 90 | 0.0 | 3.0 | 0.00 | 0.06 | 0.06 | 94 | 992.8 |
| 20260509175543 | 41 | 311 | 0.0 | 5.0 | 0.00 | 0.06 | 0.06 | 94 | 992.8 |
| 20260509175041 | 41 | 151 | 4.0 | 6.0 | 0.00 | 0.06 | 0.06 | 95 | 993.0 |
| 20260509174537 | 40 | 129 | 2.0 | 7.0 | 0.00 | 0.06 | 0.06 | 95 | 992.7 |
| 20260509174032 | 40 | 72 | 0.0 | 6.0 | 0.00 | 0.06 | 0.06 | 95 | 992.7 |
| 20260509173526 | 40 | 90 | 2.0 | 8.0 | 0.00 | 0.06 | 0.06 | 95 | 992.7 |
| 20260509173023 | 40 | 270 | 2.0 | 7.0 | 0.00 | 0.06 | 0.06 | 96 | 992.9 |
| 20260509172520 | 39 | 63 | 2.0 | 12.0 | 0.00 | 0.06 | 0.06 | 96 | 992.9 |
| 20260509172016 | 39 | 120 | 3.0 | 6.0 | 0.00 | 0.06 | 0.06 | 96 | 993.0 |
| 20260509171512 | 39 | 85 | 5.0 | 6.0 | 0.00 | 0.06 | 0.06 | 95 | 993.2 |
| 20260509171009 | 39 | 97 | 3.0 | 5.0 | 0.00 | 0.06 | 0.06 | 96 | 993.2 |
| 20260509170504 | 39 | 147 | 9.0 | 9.0 | 0.00 | 0.06 | 0.06 | 96 | 993.2 |
| 20260509170001 | 39 | 72 | 3.0 | 6.0 | 0.00 | 0.06 | 0.06 | 96 | 993.1 |
| 20260509165459 | 39 | 152 | 5.0 | 7.0 | 0.00 | 0.06 | 0.06 | 96 | 993.3 |
| 20260509164955 | 39 | 61 | 3.0 | 8.0 | 0.00 | 0.06 | 0.06 | 96 | 993.4 |
| 20260509164451 | 38 | 198 | 3.0 | 9.0 | 0.00 | 0.06 | 0.06 | 96 | 993.2 |
| 20260509163947 | 39 | 276 | 2.0 | 6.0 | 0.00 | 0.06 | 0.06 | 97 | 993.3 |
| 20260509163445 | 38 | 165 | 2.0 | 4.0 | 0.00 | 0.06 | 0.06 | 97 | 993.3 |
| 20260509162944 | 38 | 140 | 3.0 | 6.0 | 0.00 | 0.06 | 0.06 | 97 | 993.2 |
| 20260509162443 | 38 | 90 | 4.0 | 11.0 | 0.00 | 0.06 | 0.06 | 97 | 993.2 |
| 20260509161938 | 37 | 342 | 1.0 | 12.0 | 0.00 | 0.06 | 0.06 | 97 | 993.4 |
| 20260509161435 | 38 | 124 | 7.0 | 7.0 | 0.00 | 0.06 | 0.06 | 98 | 993.3 |
| 20260509160930 | 38 | 166 | 2.0 | 4.0 | 0.00 | 0.06 | 0.06 | 98 | 993.5 |
| 20260509160426 | 37 | 90 | 0.0 | 3.0 | 0.00 | 0.06 | 0.06 | 98 | 993.4 |
| 20260509155921 | 37 | 70 | 0.0 | 5.0 | 0.00 | 0.06 | 0.06 | 98 | 993.5 |
| 20260509155418 | 37 | 121 | 2.0 | 6.0 | 0.00 | 0.06 | 0.06 | 98 | 993.5 |
| 20260509154915 | 36 | 120 | 3.0 | 6.0 | 0.00 | 0.06 | 0.06 | 98 | 993.6 |
| 20260509154411 | 36 | 152 | 3.0 | 11.0 | 0.00 | 0.06 | 0.06 | 98 | 993.3 |
| 20260509153908 | 36 | 109 | 6.0 | 11.0 | 0.02 | 0.06 | 0.06 | 98 | 993.6 |
| 20260509153405 | 36 | 147 | 4.0 | 8.0 | 0.02 | 0.06 | 0.06 | 98 | 993.5 |
| 20260509152902 | 36 | 79 | 0.0 | 9.0 | 0.00 | 0.06 | 0.06 | 98 | 993.5 |
| 20260509152358 | 36 | 150 | 3.0 | 6.0 | 0.02 | 0.06 | 0.06 | 98 | 993.5 |
| 20260509151855 | 36 | 60 | 2.0 | 4.0 | 0.02 | 0.06 | 0.06 | 98 | 993.3 |
| 20260509151351 | 36 | 22 | 8.0 | 8.0 | 0.00 | 0.05 | 0.05 | 98 | 993.6 |
| 20260509150850 | 37 | 74 | 0.0 | 5.0 | 0.00 | 0.05 | 0.05 | 98 | 993.6 |
| 20260509150347 | 37 | 78 | 2.0 | 7.0 | 0.02 | 0.05 | 0.05 | 98 | 993.7 |
| 20260509145845 | 36 | 240 | 2.0 | 4.0 | 0.00 | 0.05 | 0.05 | 98 | 993.7 |
| 20260509145344 | 37 | 31 | 3.0 | 5.0 | 0.00 | 0.05 | 0.05 | 98 | 993.6 |
| 20260509144841 | 37 | 154 | 0.0 | 3.0 | 0.02 | 0.05 | 0.05 | 98 | 993.5 |
| 20260509144338 | 36 | 331 | 2.0 | 6.0 | 0.02 | 0.05 | 0.05 | 97 | 993.7 |
| 20260509143835 | 36 | 130 | 0.0 | 4.0 | 0.00 | 0.04 | 0.04 | 97 | 993.6 |
| 20260509143333 | 37 | 90 | 1.0 | 3.0 | 0.00 | 0.04 | 0.04 | 97 | 993.7 |
| 20260509142829 | 36 | 28 | 0.0 | 5.0 | 0.02 | 0.04 | 0.04 | 97 | 993.8 |
| 20260509142325 | 37 | 90 | 3.0 | 5.0 | 0.00 | 0.04 | 0.04 | 97 | 993.7 |
| 20260509141821 | 37 | 32 | 1.0 | 3.0 | 0.02 | 0.04 | 0.04 | 97 | 993.9 |
| 20260509141318 | 37 | 168 | 2.0 | 3.0 | 0.02 | 0.04 | 0.04 | 97 | 993.9 |
| 20260509140814 | 37 | 36 | 2.0 | 5.0 | 0.02 | 0.04 | 0.04 | 97 | 994.2 |
| 20260509140311 | 37 | 26 | 0.0 | 4.0 | 0.05 | 0.04 | 0.04 | 97 | 994.0 |
| 20260509135810 | 37 | 343 | 2.0 | 3.0 | 0.02 | 0.03 | 0.03 | 97 | 994.3 |
| 20260509135307 | 37 | 176 | 0.0 | 3.0 | 0.02 | 0.03 | 0.03 | 96 | 994.5 |
| 20260509134804 | 37 | 52 | 2.0 | 4.0 | 0.02 | 0.02 | 0.02 | 96 | 994.4 |
| 20260509134301 | 37 | 70 | 0.0 | 3.0 | 0.02 | 0.02 | 0.02 | 96 | 994.4 |
| 20260509133758 | 37 | 48 | 2.0 | 2.0 | 0.02 | 0.02 | 0.02 | 96 | 994.8 |
| 20260509133254 | 37 | 90 | 0.0 | 3.0 | 0.02 | 0.02 | 0.02 | 96 | 994.6 |
| 20260509132753 | 37 | 29 | 0.0 | 4.0 | 0.00 | 0.02 | 0.02 | 96 | 994.6 |
| 20260509132252 | 37 | 95 | 2.0 | 4.0 | 0.02 | 0.02 | 0.02 | 96 | 994.7 |
| 20260509131748 | 38 | 128 | 2.0 | 2.0 | 0.02 | 0.02 | 0.02 | 95 | 994.7 |
| 20260509131244 | 38 | 32 | 0.0 | 4.0 | 0.00 | 0.01 | 0.01 | 95 | 994.9 |
| 20260509130741 | 38 | 102 | 0.0 | 0.0 | 0.00 | 0.01 | 0.01 | 95 | 994.9 |
| 20260509130236 | 38 | 66 | 1.0 | 3.0 | 0.02 | 0.01 | 0.01 | 95 | 995.1 |
| 20260509125733 | 38 | 98 | 2.0 | 3.0 | 0.02 | 0.01 | 0.01 | 95 | 995.1 |
| 20260509125230 | 38 | 96 | 0.0 | 4.0 | 0.00 | 0.01 | 0.01 | 95 | 995.0 |
| 20260509124726 | 38 | 56 | 0.0 | 3.0 | 0.00 | 0.01 | 0.01 | 95 | 995.2 |
| 20260509124223 | 38 | 75 | 1.0 | 5.0 | 0.00 | 0.01 | 0.01 | 94 | 995.3 |
| 20260509123722 | 38 | 126 | 0.0 | 4.0 | 0.00 | 0.01 | 0.01 | 94 | 995.4 |
| 20260509123218 | 38 | 123 | 1.0 | 2.0 | 0.02 | 0.01 | 0.01 | 94 | 995.4 |
| 20260509122714 | 38 | 63 | 3.0 | 4.0 | 0.00 | 0.00 | 0.00 | 94 | 995.7 |
| 20260509122211 | 38 | 144 | 2.0 | 3.0 | 0.00 | 0.00 | 0.00 | 94 | 995.6 |
| 20260509121708 | 39 | 0 | 0.0 | 4.0 | 0.00 | 0.00 | 0.00 | 94 | 995.5 |
| 20260509121206 | 39 | 23 | 0.0 | 5.0 | 0.00 | 0.00 | 0.00 | 94 | 995.7 |
| 20260509120703 | 39 | 160 | 0.0 | 3.0 | 0.00 | 0.00 | 0.00 | 93 | 995.7 |
| 20260509120201 | 39 | 159 | 2.0 | 5.0 | 0.00 | 0.00 | 0.00 | 93 | 995.7 |
| 20260509115658 | 39 | 306 | 1.0 | 6.0 | 0.00 | 0.00 | 0.00 | 92 | 995.9 |
| 20260509115155 | 39 | 77 | 0.0 | 2.0 | 0.00 | 0.00 | 0.00 | 92 | 995.9 |
| 20260509114654 | 39 | 135 | 3.0 | 3.0 | 0.00 | 0.00 | 0.00 | 92 | 996.1 |
| 20260509114153 | 39 | 128 | 3.0 | 5.0 | 0.00 | 0.00 | 0.00 | 91 | 996.1 |
| 20260509113650 | 39 | 164 | 2.0 | 5.0 | 0.00 | 0.00 | 0.00 | 91 | 996.2 |
| 20260509113147 | 39 | 142 | 2.0 | 5.0 | 0.00 | 0.00 | 0.00 | 91 | 996.3 |
| 20260509112644 | 39 | 249 | 0.0 | 5.0 | 0.00 | 0.00 | 0.00 | 91 | 996.3 |
| 20260509112141 | 39 | 139 | 0.0 | 3.0 | 0.00 | 0.00 | 0.00 | 91 | 996.3 |
| 20260509111638 | 39 | 96 | 0.0 | 3.0 | 0.00 | 0.00 | 0.00 | 92 | 996.4 |
| 20260509111135 | 39 | 20 | 1.0 | 5.0 | 0.00 | 0.00 | 0.00 | 92 | 996.8 |
| 20260509110632 | 39 | 105 | 2.0 | 6.0 | 0.00 | 0.00 | 0.00 | 91 | 996.5 |
| 20260509110129 | 39 | 151 | 3.0 | 4.0 | 0.00 | 0.00 | 0.00 | 91 | 996.4 |
| 20260509105627 | 39 | 109 | 2.0 | 5.0 | 0.00 | 0.00 | 0.00 | 91 | 996.7 |
| 20260509105125 | 39 | 86 | 2.0 | 3.0 | 0.00 | 0.00 | 0.00 | 91 | 996.8 |
| 20260509104621 | 40 | 84 | 0.0 | 2.0 | 0.00 | 0.00 | 0.00 | 90 | 996.9 |
| 20260509104118 | 39 | 186 | 0.0 | 3.0 | 0.00 | 0.00 | 0.00 | 90 | 997.1 |
| 20260509103616 | 39 | 90 | 0.0 | 4.0 | 0.00 | 0.00 | 0.00 | 90 | 997.0 |
| 20260509103114 | 40 | 144 | 2.0 | 4.0 | 0.00 | 0.00 | 0.00 | 90 | 997.1 |
| 20260509102611 | 40 | 145 | 1.0 | 2.0 | 0.00 | 0.00 | 0.00 | 90 | 997.2 |
| 20260509102108 | 40 | 127 | 0.0 | 2.0 | 0.00 | 0.00 | 0.00 | 89 | 997.3 |
| 20260509101604 | 40 | 128 | 0.0 | 2.0 | 0.00 | 0.00 | 0.00 | 89 | 997.3 |
| 20260509101101 | 40 | 162 | 3.0 | 4.0 | 0.00 | 0.00 | 0.00 | 88 | 997.3 |
| 20260509100558 | 40 | 151 | 0.0 | 2.0 | 0.00 | 0.00 | 0.00 | 87 | 997.5 |
| 20260509100055 | 40 | 102 | 1.0 | 3.0 | 0.00 | 0.00 | 0.00 | 87 | 997.6 |
| 20260509095551 | 40 | 97 | 1.0 | 3.0 | 0.00 | 0.00 | 0.00 | 87 | 997.7 |
| 20260509095049 | 40 | 60 | 0.0 | 3.0 | 0.00 | 0.00 | 0.00 | 87 | 997.7 |
| 20260509094545 | 40 | 90 | 0.0 | 3.0 | 0.00 | 0.00 | 0.00 | 86 | 997.8 |
| 20260509094043 | 40 | 19 | 2.0 | 3.0 | 0.00 | 0.00 | 0.00 | 86 | 997.8 |
| 20260509093541 | 40 | 148 | 2.0 | 3.0 | 0.00 | 0.00 | 0.00 | 86 | 997.8 |
| 20260509093038 | 40 | 57 | 0.0 | 1.0 | 0.00 | 0.00 | 0.00 | 88 | 998.1 |
| 20260509092536 | 40 | 66 | 0.0 | 2.0 | 0.00 | 0.00 | 0.00 | 89 | 997.9 |
| 20260509092035 | 40 | 41 | 2.0 | 3.0 | 0.00 | 0.00 | 0.00 | 89 | 998.0 |
| 20260509091531 | 41 | 74 | 0.0 | 1.0 | 0.00 | 0.00 | 0.00 | 90 | 998.3 |
| 20260509091028 | 41 | 12 | 1.0 | 1.0 | 0.00 | 0.00 | 0.00 | 90 | 998.3 |
| 20260509090526 | 41 | 18 | 0.0 | 0.0 | 0.00 | 0.00 | 0.00 | 91 | 998.4 |
| 20260509090023 | 40 | 15 | 0.0 | 0.0 | 0.00 | 0.00 | 0.00 | 90 | 998.4 |
| 20260509085520 | 41 | 15 | 0.0 | 1.0 | 0.00 | 0.00 | 0.00 | 90 | 998.5 |
| 20260509085016 | 41 | 35 | 0.0 | 1.0 | 0.00 | 0.00 | 0.00 | 89 | 998.7 |
| 20260509084513 | 41 | 74 | 0.0 | 1.0 | 0.00 | 0.00 | 0.00 | 89 | 998.8 |
| 20260509084010 | 41 | 35 | 1.0 | 2.0 | 0.00 | 0.00 | 0.00 | 88 | 998.8 |
| 20260509083508 | 41 | 15 | 0.0 | 0.0 | 0.02 | 0.00 | 0.00 | 87 | 998.9 |
| 20260509083004 | 42 | 54 | 0.0 | 0.0 | 0.00 | 0.00 | 0.00 | 85 | 999.0 |
| 20260509082502 | 41 | 54 | 0.0 | 2.0 | 0.00 | 0.00 | 0.00 | 85 | 999.0 |
| 20260509081958 | 41 | 90 | 0.0 | 2.0 | 0.00 | 0.00 | 0.00 | 85 | 999.1 |
| 20260509081455 | 42 | 29 | 0.0 | 1.0 | 0.00 | 0.00 | 0.00 | 85 | 999.4 |
| 20260509080952 | 42 | 74 | 0.0 | 0.0 | 0.00 | 0.00 | 0.00 | 85 | 999.1 |
| 20260509080451 | 42 | 15 | 0.0 | 0.0 | 0.00 | 0.00 | 0.00 | 84 | 999.1 |
| 20260509075948 | 42 | 20 | 0.0 | 1.0 | 0.00 | 0.00 | 0.00 | 83 | 999.5 |
| 20260509075445 | 42 | 29 | 0.0 | 0.0 | 0.00 | 0.00 | 0.00 | 83 | 999.6 |
| 20260509074943 | 41 | 69 | 1.0 | 2.0 | 0.00 | 0.00 | 0.00 | 84 | 999.6 |
| 20260509074440 | 41 | 66 | 0.0 | 3.0 | 0.00 | 0.00 | 0.00 | 82 | 999.6 |
| 20260509073936 | 42 | 54 | 0.0 | 1.0 | 0.00 | 0.00 | 0.00 | 83 | 999.8 |
| 20260509073433 | 42 | 69 | 1.0 | 2.0 | 0.00 | 0.00 | 0.00 | 81 | 999.7 |
| 20260509072929 | 42 | 74 | 0.0 | 3.0 | 0.00 | 0.00 | 0.00 | 80 | 999.8 |
| 20260509072426 | 42 | 151 | 2.0 | 3.0 | 0.00 | 0.00 | 0.00 | 77 | 999.7 |
| 20260509071923 | 43 | 108 | 2.0 | 4.0 | 0.00 | 0.00 | 0.00 | 76 | 999.8 |
| 20260509071420 | 43 | 152 | 2.0 | 3.0 | 0.00 | 0.00 | 0.00 | 76 | 999.9 |
| 20260509070918 | 44 | 114 | 1.0 | 7.0 | 0.00 | 0.00 | 0.00 | 73 | 999.9 |
| 20260509070414 | 44 | 176 | 2.0 | 3.0 | 0.00 | 0.00 | 0.00 | 72 | 1000.0 |
| 20260509065909 | 44 | 102 | 1.0 | 2.0 | 0.00 | 0.00 | 0.00 | 72 | 1000.0 |
| 20260509065406 | 44 | 35 | 0.0 | 3.0 | 0.00 | 0.00 | 0.00 | 71 | 999.8 |
| 20260509064902 | 44 | 90 | 0.0 | 1.0 | 0.00 | 0.00 | 0.00 | 72 | 1000.0 |
| 20260509064400 | 44 | 18 | 0.0 | 1.0 | 0.00 | 0.00 | 0.00 | 71 | 1000.2 |
| 20260509063857 | 44 | 0 | 0.0 | 2.0 | 0.00 | 0.00 | 0.00 | 71 | 1000.1 |
| 20260509063353 | 44 | 36 | 0.0 | 2.0 | 0.00 | 0.00 | 0.00 | 71 | 1000.3 |
| 20260509062850 | 44 | 21 | 0.0 | 3.0 | 0.00 | 0.00 | 0.00 | 69 | 999.9 |
| 20260509062347 | 44 | 90 | 0.0 | 2.0 | 0.00 | 0.00 | 0.00 | 71 | 1000.2 |
| 20260509061844 | 44 | 30 | 0.0 | 2.0 | 0.00 | 0.00 | 0.00 | 70 | 1000.2 |
| 20260509061343 | 44 | 74 | 0.0 | 2.0 | 0.00 | 0.00 | 0.00 | 70 | 1000.1 |
| 20260509060839 | 44 | 53 | 2.0 | 2.0 | 0.00 | 0.00 | 0.00 | 70 | 1000.2 |
| 20260509060337 | 44 | 45 | 0.0 | 2.0 | 0.00 | 0.00 | 0.00 | 70 | 1000.2 |
| 20260509055832 | 44 | 0 | 1.0 | 2.0 | 0.00 | 0.00 | 0.00 | 69 | 1000.3 |
| 20260509055327 | 44 | 148 | 1.0 | 3.0 | 0.00 | 0.00 | 0.00 | 68 | 1000.5 |
| 20260509054825 | 45 | 149 | 4.0 | 5.0 | 0.00 | 0.00 | 0.00 | 67 | 1000.4 |
| 20260509054321 | 45 | 135 | 2.0 | 7.0 | 0.00 | 0.00 | 0.00 | 64 | 1000.3 |
| 20260509053820 | 45 | 148 | 2.0 | 5.0 | 0.00 | 0.00 | 0.00 | 64 | 1000.3 |
| 20260509053316 | 46 | 180 | 2.0 | 7.0 | 0.00 | 0.00 | 0.00 | 61 | 1000.2 |
| 20260509052814 | 46 | 103 | 2.0 | 5.0 | 0.00 | 0.00 | 0.00 | 61 | 1000.5 |
| 20260509052312 | 46 | 117 | 5.0 | 7.0 | 0.00 | 0.00 | 0.00 | 61 | 1000.6 |
| 20260509051809 | 46 | 117 | 2.0 | 4.0 | 0.00 | 0.00 | 0.00 | 66 | 1000.4 |
| 20260509051307 | 47 | 100 | 2.0 | 2.0 | 0.00 | 0.00 | 0.00 | 66 | 1000.5 |
| 20260509050804 | 47 | 8 | 0.0 | 1.0 | 0.00 | 0.00 | 0.00 | 63 | 1000.4 |
| 20260509050300 | 47 | 215 | 0.0 | 4.0 | 0.00 | 0.00 | 0.00 | 65 | 1000.5 |
| 20260509045757 | 47 | 189 | 3.0 | 4.0 | 0.00 | 0.00 | 0.00 | 56 | 1000.4 |
| 20260509045254 | 47 | 155 | 3.0 | 3.0 | 0.00 | 0.00 | 0.00 | 58 | 1000.8 |
| 20260509044752 | 47 | 147 | 3.0 | 6.0 | 0.00 | 0.00 | 0.00 | 59 | 1000.6 |
| 20260509044249 | 47 | 254 | 0.0 | 4.0 | 0.00 | 0.00 | 0.00 | 65 | 1000.6 |
| 20260509043745 | 47 | 264 | 1.0 | 2.0 | 0.00 | 0.00 | 0.00 | 64 | 1000.7 |
| 20260509043241 | 47 | 220 | 0.0 | 3.0 | 0.00 | 0.00 | 0.00 | 64 | 1000.6 |
| 20260509042737 | 47 | 196 | 4.0 | 4.0 | 0.00 | 0.00 | 0.00 | 64 | 1000.8 |
| 20260509042234 | 48 | 264 | 0.0 | 3.0 | 0.00 | 0.00 | 0.00 | 65 | 1000.8 |
| 20260509041731 | 48 | 206 | 0.0 | 2.0 | 0.00 | 0.00 | 0.00 | 65 | 1000.5 |
| 20260509041228 | 48 | 240 | 1.0 | 2.0 | 0.00 | 0.00 | 0.00 | 62 | 1000.8 |
| 20260509040726 | 48 | 220 | 0.0 | 3.0 | 0.00 | 0.00 | 0.00 | 62 | 1000.6 |
| 20260509040223 | 48 | 254 | 0.0 | 3.0 | 0.00 | 0.00 | 0.00 | 61 | 1001.0 |
| 20260509035719 | 48 | 180 | 3.0 | 5.0 | 0.00 | 0.00 | 0.00 | 63 | 1000.8 |
| 20260509035217 | 49 | 180 | 2.0 | 4.0 | 0.00 | 0.00 | 0.00 | 62 | 1000.7 |
| 20260509034714 | 49 | 178 | 4.0 | 4.0 | 0.00 | 0.00 | 0.00 | 62 | 1000.8 |
| 20260509034211 | 49 | 0 | 3.0 | 4.0 | 0.00 | 0.00 | 0.00 | 62 | 1000.9 |
| 20260509033708 | 49 | 228 | 0.0 | 3.0 | 0.00 | 0.00 | 0.00 | 62 | 1001.2 |
| 20260509033205 | 49 | 286 | 0.0 | 4.0 | 0.00 | 0.00 | 0.00 | 62 | 1001.1 |
| 20260509032702 | 49 | 258 | 4.0 | 5.0 | 0.00 | 0.00 | 0.00 | 61 | 1001.1 |
| 20260509032159 | 50 | 191 | 3.0 | 6.0 | 0.00 | 0.00 | 0.00 | 60 | 1001.0 |
| 20260509031657 | 50 | 265 | 3.0 | 6.0 | 0.00 | 0.00 | 0.00 | 58 | 1001.0 |
| 20260509031154 | 50 | 310 | 3.0 | 9.0 | 0.00 | 0.00 | 0.00 | 58 | 1001.2 |
| 20260509030652 | 50 | 225 | 2.0 | 7.0 | 0.00 | 0.00 | 0.00 | 59 | 1000.8 |
| 20260509030149 | 50 | 247 | 4.0 | 5.0 | 0.00 | 0.00 | 0.00 | 56 | 1001.0 |
| 20260509025645 | 50 | 208 | 3.0 | 5.0 | 0.00 | 0.00 | 0.00 | 56 | 1001.1 |
| 20260509025141 | 50 | 297 | 3.0 | 5.0 | 0.00 | 0.00 | 0.00 | 53 | 1001.3 |
| 20260509024636 | 51 | 180 | 4.0 | 6.0 | 0.00 | 0.00 | 0.00 | 54 | 1001.3 |
| 20260509024132 | 51 | 270 | 0.0 | 8.0 | 0.00 | 0.00 | 0.00 | 52 | 1001.3 |
| 20260509023631 | 51 | 18 | 0.0 | 5.0 | 0.00 | 0.00 | 0.00 | 50 | 1001.2 |
| 20260509023127 | 51 | 292 | 3.0 | 3.0 | 0.00 | 0.00 | 0.00 | 48 | 1001.3 |
| 20260509022623 | 52 | 242 | 4.0 | 5.0 | 0.00 | 0.00 | 0.00 | 50 | 1001.5 |
| 20260509022122 | 51 | 216 | 3.0 | 4.0 | 0.00 | 0.00 | 0.00 | 49 | 1001.1 |
| 20260509021618 | 51 | 180 | 3.0 | 9.0 | 0.00 | 0.00 | 0.00 | 49 | 1001.3 |
| 20260509021115 | 52 | 191 | 2.0 | 5.0 | 0.00 | 0.00 | 0.00 | 49 | 1001.3 |
| 20260509020614 | 51 | 264 | 3.0 | 4.0 | 0.00 | 0.00 | 0.00 | 48 | 1001.6 |
| 20260509020110 | 51 | 198 | 4.0 | 7.0 | 0.00 | 0.00 | 0.00 | 49 | 1001.4 |
| 20260509015609 | 51 | 203 | 1.0 | 6.0 | 0.00 | 0.00 | 0.00 | 48 | 1001.5 |
| 20260509015106 | 51 | 326 | 3.0 | 6.0 | 0.00 | 0.00 | 0.00 | 49 | 1001.8 |
| 20260509014602 | 51 | 236 | 5.0 | 5.0 | 0.00 | 0.00 | 0.00 | 50 | 1001.9 |
| 20260509014059 | 52 | 246 | 0.0 | 3.0 | 0.00 | 0.00 | 0.00 | 51 | 1001.7 |
| 20260509013556 | 51 | 281 | 4.0 | 5.0 | 0.00 | 0.00 | 0.00 | 50 | 1002.0 |
| 20260509013051 | 51 | 187 | 6.0 | 9.0 | 0.00 | 0.00 | 0.00 | 50 | 1002.1 |
| 20260509012549 | 51 | 263 | 1.0 | 6.0 | 0.00 | 0.00 | 0.00 | 48 | 1002.1 |
| 20260509012045 | 52 | 180 | 1.0 | 3.0 | 0.00 | 0.00 | 0.00 | 48 | 1002.0 |
| 20260509011543 | 52 | 239 | 2.0 | 4.0 | 0.00 | 0.00 | 0.00 | 46 | 1002.1 |
| 20260509011040 | 52 | 151 | 3.0 | 6.0 | 0.00 | 0.00 | 0.00 | 42 | 1002.2 |
| 20260509010538 | 52 | 199 | 4.0 | 5.0 | 0.00 | 0.00 | 0.00 | 38 | 1002.5 |
| 20260509010034 | 53 | 213 | 2.0 | 4.0 | 0.00 | 0.00 | 0.00 | 39 | 1002.3 |
| 20260509005533 | 53 | 114 | 8.0 | 8.0 | 0.00 | 0.00 | 0.00 | 38 | 1002.4 |
| 20260509005032 | 53 | 180 | 0.0 | 5.0 | 0.00 | 0.00 | 0.00 | 38 | 1002.5 |
| 20260509004530 | 53 | 175 | 2.0 | 4.0 | 0.00 | 0.00 | 0.00 | 38 | 1002.5 |
| 20260509004026 | 53 | 151 | 4.0 | 9.0 | 0.00 | 0.00 | 0.00 | 39 | 1002.6 |
| 20260509003525 | 54 | 29 | 2.0 | 4.0 | 0.00 | 0.00 | 0.00 | 37 | 1002.5 |
| 20260509003021 | 53 | 143 | 0.0 | 2.0 | 0.00 | 0.00 | 0.00 | 38 | 1002.9 |
| 20260509002519 | 53 | 102 | 2.0 | 4.0 | 0.00 | 0.00 | 0.00 | 38 | 1003.0 |
| 20260509002016 | 53 | 66 | 0.0 | 3.0 | 0.00 | 0.00 | 0.00 | 38 | 1003.1 |
| 20260509001514 | 53 | 195 | 3.0 | 4.0 | 0.00 | 0.00 | 0.00 | 38 | 1003.2 |
| 20260509001009 | 54 | 161 | 2.0 | 5.0 | 0.00 | 0.00 | 0.00 | 38 | 1003.2 |
| 20260509000508 | 53 | 188 | 3.0 | 5.0 | 0.00 | 0.00 | 0.00 | 39 | 1003.2 |
| 20260509000004 | 53 | 203 | 1.0 | 3.0 | 0.00 | 0.00 | 0.00 | 38 | 1003.3 |
| 20260508235502 | 53 | 239 | 2.0 | 3.0 | 0.00 | 0.00 | 0.00 | 39 | 1003.4 |
| 20260508234958 | 53 | 172 | 0.0 | 3.0 | 0.00 | 0.00 | 0.00 | 38 | 1003.5 |
| 20260508234455 | 53 | 151 | 3.0 | 7.0 | 0.00 | 0.00 | 0.00 | 40 | 1003.5 |
| 20260508233952 | 52 | 107 | 0.0 | 4.0 | 0.00 | 0.00 | 0.00 | 38 | 1003.4 |
| 20260508233452 | 52 | 170 | 3.0 | 5.0 | 0.00 | 0.00 | 0.00 | 39 | 1003.7 |
| 20260508232948 | 51 | 270 | 0.0 | 2.0 | 0.00 | 0.00 | 0.00 | 40 | 1003.7 |
| 20260508232445 | 51 | 90 | 0.0 | 5.0 | 0.00 | 0.00 | 0.00 | 40 | 1003.7 |
| 20260508231942 | 51 | 270 | 0.0 | 4.0 | 0.00 | 0.00 | 0.00 | 39 | 1003.8 |
| 20260508231439 | 52 | 188 | 5.0 | 5.0 | 0.00 | 0.00 | 0.00 | 39 | 1003.8 |
| 20260508230936 | 53 | 66 | 0.0 | 4.0 | 0.00 | 0.00 | 0.00 | 39 | 1004.1 |
| 20260508230433 | 52 | 140 | 3.0 | 4.0 | 0.00 | 0.00 | 0.00 | 39 | 1004.3 |
| 20260508225930 | 52 | 305 | 0.0 | 5.0 | 0.00 | 0.00 | 0.00 | 40 | 1004.2 |
| 20260508225427 | 51 | 148 | 3.0 | 4.0 | 0.00 | 0.00 | 0.00 | 40 | 1004.2 |
| 20260508224924 | 51 | 152 | 6.0 | 8.0 | 0.00 | 0.00 | 0.00 | 40 | 1004.4 |
| 20260508224422 | 52 | 175 | 0.0 | 3.0 | 0.00 | 0.00 | 0.00 | 40 | 1004.1 |
| 20260508223919 | 52 | 90 | 3.0 | 5.0 | 0.00 | 0.00 | 0.00 | 40 | 1004.2 |
| 20260508223417 | 52 | 261 | 0.0 | 4.0 | 0.00 | 0.00 | 0.00 | 39 | 1004.3 |
| 20260508222914 | 52 | 158 | 4.0 | 5.0 | 0.00 | 0.00 | 0.00 | 40 | 1004.7 |
| 20260508222411 | 54 | 135 | 0.0 | 5.0 | 0.00 | 0.00 | 0.00 | 37 | 1004.6 |
| 20260508221907 | 54 | 190 | 2.0 | 6.0 | 0.00 | 0.00 | 0.00 | 38 | 1004.8 |
| 20260508221403 | 53 | 276 | 3.0 | 4.0 | 0.00 | 0.00 | 0.00 | 38 | 1004.6 |
| 20260508220859 | 52 | 196 | 3.0 | 7.0 | 0.00 | 0.00 | 0.00 | 39 | 1004.7 |
| 20260508220356 | 52 | 157 | 5.0 | 10.0 | 0.00 | 0.00 | 0.00 | 38 | 1004.9 |
| 20260508215852 | 51 | 180 | 2.0 | 7.0 | 0.00 | 0.00 | 0.00 | 40 | 1004.7 |
| 20260508215349 | 51 | 158 | 5.0 | 9.0 | 0.00 | 0.00 | 0.00 | 42 | 1004.9 |
| 20260508214846 | 52 | 117 | 1.0 | 9.0 | 0.00 | 0.00 | 0.00 | 40 | 1005.0 |
| 20260508214344 | 53 | 101 | 2.0 | 4.0 | 0.00 | 0.00 | 0.00 | 40 | 1005.0 |
| 20260508213840 | 53 | 192 | 3.0 | 5.0 | 0.00 | 0.00 | 0.00 | 39 | 1005.1 |
| 20260508213337 | 53 | 341 | 2.0 | 4.0 | 0.00 | 0.00 | 0.00 | 41 | 1005.3 |
| 20260508212833 | 51 | 144 | 6.0 | 6.0 | 0.00 | 0.00 | 0.00 | 40 | 1005.4 |
| 20260508212330 | 52 | 146 | 3.0 | 7.0 | 0.00 | 0.00 | 0.00 | 41 | 1005.5 |
| 20260508211825 | 52 | 165 | 0.0 | 4.0 | 0.00 | 0.00 | 0.00 | 41 | 1005.5 |
| 20260508211321 | 51 | 94 | 3.0 | 6.0 | 0.00 | 0.00 | 0.00 | 43 | 1005.5 |
| 20260508210819 | 51 | 150 | 2.0 | 6.0 | 0.00 | 0.00 | 0.00 | 46 | 1005.6 |
| 20260508210315 | 50 | 167 | 3.0 | 7.0 | 0.00 | 0.00 | 0.00 | 44 | 1005.7 |
| 20260508205812 | 51 | 123 | 2.0 | 3.0 | 0.00 | 0.00 | 0.00 | 47 | 1006.1 |
| 20260508205308 | 50 | 157 | 3.0 | 5.0 | 0.00 | 0.00 | 0.00 | 46 | 1005.9 |
| 20260508204805 | 50 | 175 | 3.0 | 4.0 | 0.00 | 0.00 | 0.00 | 46 | 1006.0 |
| 20260508204302 | 49 | 146 | 4.0 | 10.0 | 0.00 | 0.00 | 0.00 | 47 | 1006.0 |
| 20260508203758 | 50 | 45 | 5.0 | 6.0 | 0.00 | 0.00 | 0.00 | 47 | 1006.1 |
| 20260508203254 | 50 | 103 | 2.0 | 6.0 | 0.00 | 0.00 | 0.00 | 50 | 1006.2 |
| 20260508202750 | 50 | 90 | 0.0 | 4.0 | 0.00 | 0.00 | 0.00 | 47 | 1006.4 |
| 20260508202247 | 49 | 119 | 2.0 | 7.0 | 0.00 | 0.00 | 0.00 | 50 | 1006.5 |
| 20260508201744 | 49 | 129 | 2.0 | 7.0 | 0.00 | 0.00 | 0.00 | 50 | 1006.5 |
| 20260508201241 | 51 | 137 | 4.0 | 6.0 | 0.00 | 0.00 | 0.00 | 46 | 1006.5 |
| 20260508200738 | 50 | 162 | 3.0 | 8.0 | 0.00 | 0.00 | 0.00 | 49 | 1006.6 |
| 20260508200234 | 49 | 139 | 6.0 | 9.0 | 0.00 | 0.00 | 0.00 | 48 | 1006.8 |
| 20260508195730 | 49 | 22 | 2.0 | 4.0 | 0.00 | 0.00 | 0.00 | 50 | 1006.5 |
| 20260508195227 | 49 | 184 | 2.0 | 4.0 | 0.00 | 0.00 | 0.00 | 55 | 1006.7 |
| 20260508194724 | 47 | 208 | 4.0 | 8.0 | 0.00 | 0.00 | 0.00 | 56 | 1006.9 |
| 20260508194220 | 48 | 199 | 4.0 | 4.0 | 0.00 | 0.00 | 0.00 | 55 | 1006.7 |
| 20260508193717 | 48 | 217 | 3.0 | 7.0 | 0.00 | 0.00 | 0.00 | 56 | 1006.9 |
| 20260508193214 | 48 | 175 | 2.0 | 3.0 | 0.00 | 0.00 | 0.00 | 60 | 1007.0 |
| 20260508192710 | 48 | 7 | 1.0 | 3.0 | 0.00 | 0.00 | 0.00 | 61 | 1006.9 |
| 20260508192208 | 47 | 81 | 0.0 | 5.0 | 0.00 | 0.00 | 0.00 | 61 | 1007.2 |
| 20260508191705 | 46 | 199 | 3.0 | 9.0 | 0.00 | 0.00 | 0.00 | 61 | 1007.2 |
| 20260508191201 | 47 | 180 | 1.0 | 6.0 | 0.00 | 0.00 | 0.00 | 62 | 1007.3 |
| 20260508190659 | 46 | 164 | 3.0 | 6.0 | 0.00 | 0.00 | 0.00 | 64 | 1007.3 |
| 20260508190155 | 46 | 229 | 5.0 | 5.0 | 0.00 | 0.00 | 0.00 | 66 | 1007.7 |